createdAt,value
2023-02-19T00:02:23.997Z,10.53
2023-02-19T00:05:25.523Z,10.53
2023-02-19T00:08:27.117Z,10.52
2023-02-19T00:11:34.564Z,10.51
2023-02-19T00:14:36.155Z,10.52
2023-02-19T00:17:37.731Z,10.50
2023-02-19T00:20:39.270Z,10.48
2023-02-19T00:23:41.003Z,10.46
2023-02-19T00:26:43.661Z,10.44
2023-02-19T00:29:45.295Z,10.40
2023-02-19T00:32:51.696Z,10.39
2023-02-19T00:35:53.248Z,10.37
2023-02-19T00:38:55.299Z,10.36
2023-02-19T00:41:56.854Z,10.35
2023-02-19T00:44:58.482Z,10.33
2023-02-19T00:48:00.043Z,10.34
2023-02-19T00:51:01.615Z,10.32
2023-02-19T00:54:04.176Z,10.33
2023-02-19T00:57:06.431Z,10.33
2023-02-19T01:00:08.757Z,10.34
2023-02-19T01:03:10.482Z,10.31
2023-02-19T01:06:14.880Z,10.33
2023-02-19T01:09:16.521Z,10.34
2023-02-19T01:12:18.125Z,10.33
2023-02-19T01:15:19.728Z,10.34
2023-02-19T01:18:21.289Z,10.31
2023-02-19T01:21:25.550Z,10.34
2023-02-19T01:24:27.170Z,10.32
2023-02-19T01:27:28.895Z,10.31
2023-02-19T01:30:30.543Z,10.33
2023-02-19T01:33:33.422Z,10.33
2023-02-19T01:36:35.173Z,10.33
2023-02-19T01:39:36.752Z,10.33
2023-02-19T01:42:42.963Z,10.32
2023-02-19T01:45:45.715Z,10.30
2023-02-19T01:48:47.509Z,10.31
2023-02-19T01:52:12.718Z,10.32
2023-02-19T01:55:14.593Z,10.33
2023-02-19T01:58:16.704Z,10.33
2023-02-19T02:01:18.414Z,10.28
2023-02-19T02:04:20.019Z,10.32
2023-02-19T02:07:41.610Z,10.34
2023-02-19T02:10:43.672Z,10.35
2023-02-19T02:13:46.165Z,10.35
2023-02-19T02:17:09.107Z,10.33
2023-02-19T02:20:29.060Z,10.34
2023-02-19T02:24:02.093Z,10.33
2023-02-19T02:27:35.597Z,10.30
2023-02-19T02:30:46.305Z,10.28
2023-02-19T02:33:59.296Z,10.27
2023-02-19T02:37:03.560Z,10.28
2023-02-19T02:40:07.835Z,10.24
2023-02-19T02:43:10.318Z,10.16
2023-02-19T02:46:15.576Z,10.15
2023-02-19T02:49:24.537Z,10.10
2023-02-19T02:52:46.829Z,10.07
2023-02-19T02:55:52.103Z,10.05
2023-02-19T02:58:57.218Z,10.02
2023-02-19T03:02:14.770Z,9.91
2023-02-19T03:05:41.387Z,9.89
2023-02-19T03:08:56.124Z,9.78
2023-02-19T03:12:22.369Z,9.74
2023-02-19T03:15:48.854Z,9.65
2023-02-19T03:19:13.889Z,9.59
2023-02-19T03:22:26.345Z,9.54
2023-02-19T03:25:52.908Z,9.50
2023-02-19T03:29:23.675Z,9.43
2023-02-19T03:32:38.230Z,9.37
2023-02-19T03:35:45.612Z,9.33
2023-02-19T03:39:00.886Z,9.26
2023-02-19T03:42:18.293Z,9.23
2023-02-19T03:45:43.186Z,9.21
2023-02-19T03:48:52.264Z,9.18
2023-02-19T03:52:23.420Z,9.12
2023-02-19T03:55:30.897Z,9.08
2023-02-19T03:58:49.233Z,9.04
2023-02-19T04:01:56.006Z,9.00
2023-02-19T04:05:14.019Z,8.96
2023-02-19T04:08:19.660Z,8.95
2023-02-19T04:11:29.075Z,8.93
2023-02-19T04:14:44.179Z,8.89
2023-02-19T04:17:52.287Z,8.85
2023-02-19T04:20:54.663Z,8.83
2023-02-19T04:24:03.192Z,8.79
2023-02-19T04:27:06.996Z,8.75
2023-02-19T04:30:11.488Z,8.76
2023-02-19T04:33:13.835Z,8.74
2023-02-19T04:36:15.450Z,8.75
2023-02-19T04:39:17.562Z,8.75
2023-02-19T04:42:19.589Z,8.71
2023-02-19T04:45:21.617Z,8.70
2023-02-19T04:48:23.216Z,8.70
2023-02-19T04:51:25.119Z,8.70
2023-02-19T04:54:26.800Z,8.71
2023-02-19T04:57:28.784Z,8.69
2023-02-19T05:00:31.121Z,8.70
2023-02-19T05:03:35.714Z,8.69
2023-02-19T05:06:37.777Z,8.70
2023-02-19T05:09:39.485Z,8.67
2023-02-19T05:12:41.136Z,8.67
2023-02-19T05:15:43.238Z,8.67
2023-02-19T05:18:46.829Z,8.69
2023-02-19T05:21:49.094Z,8.69
2023-02-19T05:24:51.178Z,8.68
2023-02-19T05:28:12.911Z,8.67
2023-02-19T05:31:15.079Z,8.69
2023-02-19T05:34:17.187Z,8.71
2023-02-19T05:37:19.200Z,8.72
2023-02-19T05:40:22.220Z,8.68
2023-02-19T05:43:24.202Z,8.70
2023-02-19T05:46:29.824Z,8.69
2023-02-19T05:49:32.000Z,8.67
2023-02-19T05:52:33.998Z,8.70
2023-02-19T05:55:36.640Z,8.70
2023-02-19T05:58:38.279Z,8.71
2023-02-19T06:01:40.346Z,8.71
2023-02-19T06:04:42.325Z,8.65
2023-02-19T06:07:44.480Z,8.70
2023-02-19T06:10:46.482Z,8.68
2023-02-19T06:13:54.218Z,8.67
2023-02-19T06:16:56.356Z,8.66
2023-02-19T06:19:57.978Z,8.64
2023-02-19T06:22:59.668Z,8.61
2023-02-19T06:26:20.265Z,8.59
2023-02-19T06:29:22.418Z,8.57
2023-02-19T06:32:24.131Z,8.60
2023-02-19T06:35:26.282Z,8.58
2023-02-19T06:38:28.742Z,8.55
2023-02-19T06:41:32.060Z,8.54
2023-02-19T06:44:34.200Z,8.54
2023-02-19T06:47:35.826Z,8.53
2023-02-19T06:50:37.494Z,8.47
2023-02-19T06:53:40.333Z,8.44
2023-02-19T06:56:42.623Z,8.38
2023-02-19T06:59:44.557Z,8.36
2023-02-19T07:02:47.032Z,8.31
2023-02-19T07:05:49.570Z,8.28
2023-02-19T07:08:54.125Z,8.22
2023-02-19T07:11:55.888Z,8.22
2023-02-19T07:15:00.974Z,8.17
2023-02-19T07:18:05.295Z,8.19
2023-02-19T07:21:10.837Z,8.15
2023-02-19T07:24:12.864Z,8.13
2023-02-19T07:27:14.464Z,8.09
2023-02-19T07:30:16.599Z,8.12
2023-02-19T07:33:19.108Z,8.12
2023-02-19T07:36:23.718Z,8.09
2023-02-19T07:39:25.285Z,8.13
2023-02-19T07:42:26.953Z,8.09
2023-02-19T07:45:29.074Z,8.15
2023-02-19T07:48:31.828Z,8.13
2023-02-19T07:51:34.065Z,8.12
2023-02-19T07:54:36.224Z,8.11
2023-02-19T07:57:38.302Z,8.14
2023-02-19T08:00:40.364Z,8.15
2023-02-19T08:03:43.373Z,8.20
2023-02-19T08:06:45.628Z,8.24
2023-02-19T08:10:07.169Z,8.29
2023-02-19T08:13:19.951Z,8.28
2023-02-19T08:16:36.814Z,8.33
2023-02-19T08:19:39.781Z,8.36
2023-02-19T08:22:41.840Z,8.39
2023-02-19T08:25:44.224Z,8.42
2023-02-19T08:28:46.492Z,8.42
2023-02-19T08:31:48.628Z,8.43
2023-02-19T08:34:50.657Z,8.42
2023-02-19T08:37:56.974Z,8.47
2023-02-19T08:40:59.079Z,8.48
2023-02-19T08:44:01.237Z,8.45
2023-02-19T08:47:05.043Z,8.42
2023-02-19T08:50:08.759Z,8.42
2023-02-19T08:53:10.440Z,8.42
2023-02-19T08:56:15.037Z,8.45
2023-02-19T08:59:17.055Z,8.44
2023-02-19T09:02:18.666Z,8.39
2023-02-19T09:05:21.017Z,8.41
2023-02-19T09:08:23.107Z,8.43
2023-02-19T09:11:25.488Z,8.42
2023-02-19T09:14:27.529Z,8.39
2023-02-19T09:17:29.136Z,8.39
2023-02-19T09:20:31.289Z,8.37
2023-02-19T09:23:35.428Z,8.38
2023-02-19T09:26:38.668Z,8.36
2023-02-19T09:29:40.379Z,8.45
2023-02-19T09:32:42.426Z,8.52
2023-02-19T09:35:44.433Z,8.55
2023-02-19T09:38:46.191Z,8.60
2023-02-19T09:41:51.910Z,8.67
2023-02-19T09:44:57.509Z,8.77
2023-02-19T09:47:59.220Z,8.85
2023-02-19T09:51:02.620Z,8.93
2023-02-19T09:54:09.883Z,8.98
2023-02-19T09:57:20.689Z,9.04
2023-02-19T10:00:30.508Z,9.06
2023-02-19T10:03:41.920Z,9.11
2023-02-19T10:06:44.103Z,9.11
2023-02-19T10:09:52.529Z,9.14
2023-02-19T10:13:00.825Z,9.17
2023-02-19T10:16:05.584Z,9.18
2023-02-19T10:19:15.933Z,9.16
2023-02-19T10:22:19.271Z,9.20
2023-02-19T10:25:20.976Z,9.23
2023-02-19T10:28:30.419Z,9.26
2023-02-19T10:31:34.661Z,9.34
2023-02-19T10:34:36.811Z,9.42
2023-02-19T10:37:49.732Z,9.50
2023-02-19T10:41:02.096Z,9.58
2023-02-19T10:44:16.424Z,9.64
2023-02-19T10:47:23.338Z,9.72
2023-02-19T10:50:32.731Z,9.77
2023-02-19T10:53:48.106Z,9.76
2023-02-19T10:56:50.273Z,9.69
2023-02-19T10:59:57.608Z,9.70
2023-02-19T11:03:21.441Z,9.67
2023-02-19T11:06:27.038Z,9.63
2023-02-19T11:09:37.102Z,9.53
2023-02-19T11:12:39.244Z,9.50
2023-02-19T11:15:41.702Z,9.49
2023-02-19T11:18:45.124Z,9.51
2023-02-19T11:21:47.914Z,9.54
2023-02-19T11:24:55.896Z,9.63
2023-02-19T11:28:23.812Z,9.71
2023-02-19T11:31:33.556Z,9.78
2023-02-19T11:34:35.903Z,9.87
2023-02-19T11:37:54.344Z,9.94
2023-02-19T11:41:15.100Z,10.02
2023-02-19T11:44:30.681Z,9.98
2023-02-19T11:47:50.526Z,9.84
2023-02-19T11:51:10.105Z,9.60
2023-02-19T11:54:48.782Z,9.43
2023-02-19T11:58:04.788Z,9.25
2023-02-19T12:01:44.040Z,9.19
2023-02-19T12:04:48.645Z,9.11
2023-02-19T12:08:13.731Z,9.01
2023-02-19T12:11:38.709Z,9.01
2023-02-19T12:15:21.145Z,9.05
2023-02-19T12:18:41.130Z,9.08
2023-02-19T12:21:51.422Z,9.12
2023-02-19T12:24:52.936Z,9.18
2023-02-19T12:28:09.660Z,9.22
2023-02-19T12:31:53.542Z,9.28
2023-02-19T12:34:55.166Z,9.28
2023-02-19T12:38:15.639Z,9.31
2023-02-19T12:41:35.788Z,9.34
2023-02-19T12:44:47.493Z,9.40
2023-02-19T12:48:03.698Z,9.42
2023-02-19T12:51:12.797Z,9.55
2023-02-19T12:54:23.839Z,9.63
2023-02-19T12:57:31.611Z,9.72
2023-02-19T13:00:33.138Z,9.78
2023-02-19T13:04:14.301Z,9.86
2023-02-19T13:07:41.790Z,9.89
2023-02-19T13:10:49.078Z,9.94
2023-02-19T13:13:55.689Z,9.97
2023-02-19T13:17:17.184Z,10.03
2023-02-19T13:20:27.956Z,10.07
2023-02-19T13:27:40.076Z,10.11
2023-02-19T13:30:52.956Z,10.16
2023-02-19T13:34:18.038Z,10.25
2023-02-19T13:37:20.676Z,10.24
2023-02-19T13:40:31.515Z,10.24
2023-02-19T13:43:38.941Z,10.26
2023-02-19T13:46:46.674Z,10.29
2023-02-19T13:49:52.232Z,10.32
2023-02-19T13:52:55.648Z,10.29
2023-02-19T13:55:57.222Z,10.37
2023-02-19T13:59:18.475Z,10.38
2023-02-19T14:02:23.064Z,10.40
2023-02-19T14:05:58.802Z,10.39
2023-02-19T14:09:00.619Z,10.35
2023-02-19T14:12:02.176Z,10.43
2023-02-19T14:15:44.179Z,10.41
2023-02-19T14:18:46.754Z,10.37
2023-02-19T14:21:48.736Z,10.33
2023-02-19T14:24:53.581Z,10.26
2023-02-19T14:28:24.141Z,10.18
2023-02-19T14:31:35.555Z,10.14
2023-02-19T14:34:37.352Z,10.14
2023-02-19T14:37:39.053Z,10.14
2023-02-19T14:40:42.232Z,10.11
2023-02-19T14:43:47.461Z,10.11
2023-02-19T14:46:56.788Z,10.06
2023-02-19T14:50:02.481Z,10.02
2023-02-19T14:53:07.274Z,10.01
2023-02-19T14:56:21.433Z,10.03
2023-02-19T14:59:27.611Z,10.05
2023-02-19T15:02:32.220Z,10.02
2023-02-19T15:05:36.798Z,10.00
2023-02-19T15:08:43.733Z,9.98
2023-02-19T15:11:45.395Z,9.96
2023-02-19T15:14:49.863Z,10.02
2023-02-19T15:17:53.664Z,10.17
2023-02-19T15:21:02.478Z,10.30
2023-02-19T15:24:06.090Z,10.43
2023-02-19T15:27:18.385Z,10.38
2023-02-19T15:30:26.697Z,10.40
2023-02-19T15:33:28.541Z,10.38
2023-02-19T15:36:32.404Z,10.32
2023-02-19T15:39:43.991Z,10.26
2023-02-19T15:42:47.191Z,10.15
2023-02-19T15:45:50.291Z,10.07
2023-02-19T15:48:56.775Z,10.03
2023-02-19T15:52:05.719Z,9.96
2023-02-19T15:55:27.084Z,9.97
2023-02-19T15:58:36.312Z,9.93
2023-02-19T16:01:39.004Z,9.84
2023-02-19T16:04:43.095Z,9.73
2023-02-19T16:07:47.370Z,9.71
2023-02-19T16:10:57.271Z,9.63
2023-02-19T16:14:19.223Z,9.60
2023-02-19T16:17:25.103Z,9.54
2023-02-19T16:20:28.493Z,9.52
2023-02-19T16:23:31.293Z,9.49
2023-02-19T16:26:44.680Z,9.44
2023-02-19T16:29:51.067Z,9.43
2023-02-19T16:33:21.824Z,9.39
2023-02-19T16:36:35.685Z,9.32
2023-02-19T16:39:40.421Z,9.30
2023-02-19T16:42:51.242Z,9.28
2023-02-19T16:45:53.445Z,9.26
2023-02-19T16:48:55.046Z,9.24
2023-02-19T16:51:59.399Z,9.22
2023-02-19T16:55:01.782Z,9.22
2023-02-19T16:58:03.461Z,9.19
2023-02-19T17:01:05.207Z,9.16
2023-02-19T17:04:09.597Z,9.13
2023-02-19T17:07:17.155Z,9.07
2023-02-19T17:10:23.491Z,9.10
2023-02-19T17:13:25.104Z,9.10
2023-02-19T17:16:29.600Z,9.06
2023-02-19T17:19:31.324Z,9.04
2023-02-19T17:22:33.631Z,8.99
2023-02-19T17:25:35.270Z,8.98
2023-02-19T17:28:36.853Z,8.96
2023-02-19T17:31:38.453Z,8.98
2023-02-19T17:34:40.183Z,8.96
2023-02-19T17:37:41.792Z,8.94
2023-02-19T17:40:45.049Z,8.94
2023-02-19T17:43:47.582Z,8.92
2023-02-19T17:46:49.445Z,8.90
2023-02-19T17:49:52.008Z,8.89
2023-02-19T17:52:53.599Z,8.87
2023-02-19T17:55:55.185Z,8.84
2023-02-19T17:58:59.953Z,8.83
2023-02-19T18:02:03.207Z,8.79
2023-02-19T18:05:05.044Z,8.76
2023-02-19T18:08:06.626Z,8.76
2023-02-19T18:11:08.488Z,8.71
2023-02-19T18:14:10.037Z,8.71
2023-02-19T18:17:11.655Z,8.69
2023-02-19T18:20:16.191Z,8.67
2023-02-19T18:23:17.883Z,8.64
2023-02-19T18:26:21.505Z,8.58
2023-02-19T18:29:24.593Z,8.57
2023-02-19T18:32:26.307Z,8.58
2023-02-19T18:35:28.088Z,8.53
2023-02-19T18:38:29.877Z,8.54
2023-02-19T18:41:31.409Z,8.54
2023-02-19T18:44:36.861Z,8.52
2023-02-19T18:47:38.515Z,8.50
2023-02-19T18:50:40.194Z,8.46
2023-02-19T18:53:44.596Z,8.45
2023-02-19T18:56:46.950Z,8.46
2023-02-19T18:59:48.869Z,8.41
2023-02-19T19:02:51.414Z,8.39
2023-02-19T19:05:53.334Z,8.39
2023-02-19T19:08:54.963Z,8.36
2023-02-19T19:11:56.509Z,8.36
2023-02-19T19:14:58.067Z,8.35
2023-02-19T19:18:00.011Z,8.31
2023-02-19T19:21:03.542Z,8.32
2023-02-19T19:24:05.625Z,8.31
2023-02-19T19:27:07.234Z,8.29
2023-02-19T19:30:09.420Z,8.27
2023-02-19T19:33:12.105Z,8.27
2023-02-19T19:36:20.236Z,8.26
2023-02-19T19:39:21.860Z,8.24
2023-02-19T19:42:24.341Z,8.20
2023-02-19T19:45:25.974Z,8.14
2023-02-19T19:48:27.784Z,8.14
2023-02-19T19:51:33.877Z,8.17
2023-02-19T19:54:35.600Z,8.09
2023-02-19T19:57:38.534Z,8.12
2023-02-19T20:00:43.360Z,8.12
2023-02-19T20:03:44.895Z,8.12
2023-02-19T20:06:46.866Z,8.12
2023-02-19T20:09:50.761Z,8.11
2023-02-19T20:12:52.597Z,8.09
2023-02-19T20:15:54.265Z,8.10
2023-02-19T20:18:55.944Z,8.11
2023-02-19T20:21:57.628Z,8.09
2023-02-19T20:24:59.361Z,8.06
2023-02-19T20:28:01.419Z,8.06
2023-02-19T20:31:03.254Z,8.06
2023-02-19T20:34:05.455Z,8.06
2023-02-19T20:37:07.586Z,8.04
2023-02-19T20:40:11.841Z,7.98
2023-02-19T20:43:13.506Z,8.00
2023-02-19T20:46:15.715Z,7.97
2023-02-19T20:49:19.592Z,8.00
2023-02-19T20:52:21.807Z,7.97
2023-02-19T20:55:24.933Z,7.96
2023-02-19T20:58:26.950Z,7.98
2023-02-19T21:01:29.065Z,7.98
2023-02-19T21:04:30.798Z,7.94
2023-02-19T21:07:32.407Z,7.96
2023-02-19T21:10:34.805Z,7.97
2023-02-19T21:13:36.692Z,7.97
2023-02-19T21:16:38.317Z,7.95
2023-02-19T21:19:40.164Z,7.95
2023-02-19T21:22:42.207Z,7.94
2023-02-19T21:25:43.875Z,7.94
2023-02-19T21:28:50.668Z,7.94
2023-02-19T21:31:55.917Z,7.93
2023-02-19T21:34:57.671Z,7.94
2023-02-19T21:37:59.326Z,7.87
2023-02-19T21:41:00.908Z,7.90
2023-02-19T21:44:03.667Z,7.91
2023-02-19T21:47:05.328Z,7.87
2023-02-19T21:50:07.474Z,7.88
2023-02-19T21:53:09.054Z,7.81
2023-02-19T21:56:10.896Z,7.83
2023-02-19T21:59:13.043Z,7.81
2023-02-19T22:02:15.163Z,7.81
2023-02-19T22:05:16.838Z,7.83
2023-02-19T22:08:18.699Z,7.80
2023-02-19T22:11:20.651Z,7.80
2023-02-19T22:14:22.256Z,7.81
2023-02-19T22:17:23.961Z,7.81
2023-02-19T22:20:25.527Z,7.83
2023-02-19T22:23:27.123Z,7.83
2023-02-19T22:26:30.500Z,7.81
2023-02-19T22:29:32.133Z,7.79
2023-02-19T22:32:33.827Z,7.78
2023-02-19T22:35:35.563Z,7.80
2023-02-19T22:38:37.165Z,7.77
2023-02-19T22:41:42.385Z,7.80
2023-02-19T22:44:44.048Z,7.76
2023-02-19T22:47:46.987Z,7.80
2023-02-19T22:50:48.868Z,7.79
2023-02-19T22:53:53.425Z,7.80
2023-02-19T22:56:56.135Z,7.78
2023-02-19T22:59:57.667Z,7.78
2023-02-19T23:02:59.561Z,7.78
2023-02-19T23:06:04.778Z,7.75
2023-02-19T23:09:10.946Z,7.79
2023-02-19T23:12:12.783Z,7.78
2023-02-19T23:15:14.436Z,7.78
2023-02-19T23:18:16.013Z,7.77
2023-02-19T23:21:19.204Z,7.76
2023-02-19T23:24:20.803Z,7.76
2023-02-19T23:27:24.212Z,7.77
2023-02-19T23:30:26.186Z,7.77
2023-02-19T23:33:27.979Z,7.76
2023-02-19T23:36:29.533Z,7.75
2023-02-19T23:39:31.292Z,7.73
2023-02-19T23:42:32.948Z,7.73
2023-02-19T23:45:34.829Z,7.76
2023-02-19T23:48:36.425Z,7.75
2023-02-19T23:51:38.069Z,7.75
2023-02-19T23:54:39.656Z,7.72
2023-02-19T23:57:41.693Z,7.73
